Ernest Shackleton — ZDLS1 — position and weather

sailwx.info

Track history (hours):
 
Tides and Currents Weather Stations Pressure Air Temp Water Temp Dewpoint Dewpoint Depression Visibility Wind Speed Wind Dir Waves Ship Positions

Oceanographic research ship Ernest Shackleton (UK/Norway)

Detailed information on ship capabilities available from University of Delaware's Ocean Information Center and ARCUS's ALIAS (Arctic Logistics Information and Support) project.

Last reported at 2017-Oct-20 02:31 UTC. Time now 2017-Oct-20 03:37 UTC.
Position N 53°35' W 000°04'.

Length 80 m; beam 17 m; draft 7.4 m.

Type: Ship. MMSI: 740357000.

Date/timePositionNaut miles runAvg speedWind from/ knotsBaromVisibWave heightAir tempDewpointWater temp
2017-Oct-20 02:31N 53°35' W 000°04'0 0.0
2017-Oct-20 02:28N 53°35' W 000°04'0 0.0
2017-Oct-20 01:49N 53°35' W 000°04'0 0.0
2017-Oct-20 01:19N 53°35' W 000°04'0 0.0
2017-Oct-20 00:52N 53°35' W 000°04'0 0.0
2017-Oct-20 00:01N 53°35' W 000°04'0 0.0
2017-Oct-19 23:01N 53°35' W 000°04'0 0.0
2017-Oct-19 22:52N 53°35' W 000°04'0 0.0
2017-Oct-19 21:34N 53°35' W 000°04'0 0.0
2017-Oct-19 21:19N 53°35' W 000°04'0 0.0
2017-Oct-19 20:58N 53°35' W 000°04'0 0.0
2017-Oct-19 20:19N 53°35' W 000°04'0 0.0
2017-Oct-19 16:25N 53°35' W 000°04'0 0.0
2017-Oct-19 15:52N 53°35' W 000°04'0 0.0
2017-Oct-19 15:28N 53°35' W 000°04'0 0.0
2017-Oct-19 14:58N 53°35' W 000°04'0 0.0
2017-Oct-19 14:28N 53°35' W 000°04'0 0.0
2017-Oct-19 13:58N 53°35' W 000°04'0 0.0
2017-Oct-19 13:28N 53°35' W 000°04'0 0.0
2017-Oct-19 12:58N 53°35' W 000°04'0 0.0
2017-Oct-19 12:25N 53°35' W 000°04'0 0.0
2017-Oct-19 11:55N 53°35' W 000°04'0 0.0
2017-Oct-19 11:25N 53°35' W 000°04'0 0.0
2017-Oct-19 10:34N 53°35' W 000°04'0 0.0
2017-Oct-19 10:22N 53°35' W 000°04'0 0.0
2017-Oct-19 09:07N 53°35' W 000°04'0 0.0
2017-Oct-18 13:43N 53°35' W 000°04'0 0.0
2017-Oct-18 13:10N 53°35' W 000°04'0 0.0
2017-Oct-18 12:43N 53°35' W 000°04'0 0.0
2017-Oct-18 12:10N 53°35' W 000°04'0 0.0
2017-Oct-18 11:43N 53°35' W 000°04'0 0.0
2017-Oct-18 11:25N 53°35' W 000°04'0 0.0
2017-Oct-18 10:58N 53°35' W 000°04'0 0.0
2017-Oct-18 10:22N 53°35' W 000°04'0 0.0
2017-Oct-18 09:52N 53°35' W 000°04'0 0.0
2017-Oct-18 09:28N 53°35' W 000°04'  
2017-Oct-16 03:35N 56°50' E 007°25'211.3
2017-Oct-16 03:27N 56°51' E 007°27'511.1
2017-Oct-16 03:00N 56°55' E 007°33'611.1
2017-Oct-16 02:29N 56°59' E 007°40'511.0
2017-Oct-16 02:00N 57°03' E 007°46'510.5
2017-Oct-16 01:30N 57°07' E 007°53'510.5
2017-Oct-16 00:59N 57°12' E 007°57'5 9.8
2017-Oct-16 00:30N 57°15' E 008°03'510.1
2017-Oct-16 00:00N 57°18' E 008°11'5 9.9
2017-Oct-15 23:29N 57°20' E 008°20'510.0
2017-Oct-15 23:00N 57°22' E 008°28'510.0
2017-Oct-15 22:29N 57°26' E 008°36'510.0
2017-Oct-15 22:00N 57°28' E 008°43'5 9.8
2017-Oct-15 21:30N 57°30' E 008°51'510.0
2017-Oct-15 21:00N 57°32' E 008°60'5 9.9
2017-Oct-15 20:30N 57°35' E 009°08'5 9.7
2017-Oct-15 19:59N 57°37' E 009°16'510.3
2017-Oct-15 19:30N 57°39' E 009°25'610.8
2017-Oct-15 18:59N 57°42' E 009°34'511.0
2017-Oct-15 18:30N 57°44' E 009°43'611.6
2017-Oct-15 18:00N 57°46' E 009°53'713.2
2017-Oct-15 17:29N 57°48' E 010°05'613.2
2017-Oct-15 17:00N 57°49' E 010°17'713.2
2017-Oct-15 16:30N 57°51' E 010°29'613.0
2017-Oct-15 16:00N 57°51' E 010°41'510.1
2017-Oct-15 15:30N 57°48' E 010°48'714.4
2017-Oct-15 15:00N 57°41' E 010°46'1414.1
2017-Oct-15 14:00N 57°27' E 010°43'6 1.2
2017-Oct-15 09:09N 57°26' E 010°33'0 0.0
2017-Oct-15 08:57N 57°26' E 010°33'0 0.0
2017-Oct-15 06:30N 57°26' E 010°33'0 0.0
2017-Oct-15 06:00N 57°26' E 010°33'0 0.0
2017-Oct-15 04:45N 57°26' E 010°33'0 0.0
2017-Oct-15 04:21N 57°26' E 010°33'  
2017-Oct-12 10:02N 57°24' E 010°46'0 2.2
2017-Oct-12 10:00N 57°24' E 010°46'0 0.5
2017-Oct-12 09:20N 57°24' E 010°47'0 1.2
2017-Oct-12 08:56N 57°24' E 010°48'0 0.4
2017-Oct-12 08:29N 57°24' E 010°48'0 0.5
2017-Oct-12 08:00N 57°24' E 010°48'2 4.4
2017-Oct-12 07:30N 57°24' E 010°43'4 8.8
2017-Oct-12 07:00N 57°25' E 010°36'2 0.2
2017-Oct-11 17:07N 57°26' E 010°33'0 0.0
2017-Oct-11 16:58N 57°26' E 010°33'  
Track history (hours):
 
Tides and Currents Weather Stations Pressure Air Temp Water Temp Dewpoint Dewpoint Depression Visibility Wind Speed Wind Dir Waves Ship Positions

Oceanographic research ship Ernest Shackleton (UK/Norway)

Detailed information on ship capabilities available from University of Delaware's Ocean Information Center and ARCUS's ALIAS (Arctic Logistics Information and Support) project.

Last reported at 2017-Oct-20 02:31 UTC. Time now 2017-Oct-20 03:37 UTC.
Position N 53°35' W 000°04'.

Length 80 m; beam 17 m; draft 7.4 m.

Type: Ship. MMSI: 740357000.

Date/timePositionNaut miles runAvg speedWind from/ knotsBaromVisibWave heightAir tempDewpointWater temp
2017-Oct-20 02:31N 53°35' W 000°04'0 0.0
2017-Oct-20 02:28N 53°35' W 000°04'0 0.0
2017-Oct-20 01:49N 53°35' W 000°04'0 0.0
2017-Oct-20 01:19N 53°35' W 000°04'0 0.0
2017-Oct-20 00:52N 53°35' W 000°04'0 0.0
2017-Oct-20 00:01N 53°35' W 000°04'0 0.0
2017-Oct-19 23:01N 53°35' W 000°04'0 0.0
2017-Oct-19 22:52N 53°35' W 000°04'0 0.0
2017-Oct-19 21:34N 53°35' W 000°04'0 0.0
2017-Oct-19 21:19N 53°35' W 000°04'0 0.0
2017-Oct-19 20:58N 53°35' W 000°04'0 0.0
2017-Oct-19 20:19N 53°35' W 000°04'0 0.0
2017-Oct-19 16:25N 53°35' W 000°04'0 0.0
2017-Oct-19 15:52N 53°35' W 000°04'0 0.0
2017-Oct-19 15:28N 53°35' W 000°04'0 0.0
2017-Oct-19 14:58N 53°35' W 000°04'0 0.0
2017-Oct-19 14:28N 53°35' W 000°04'0 0.0
2017-Oct-19 13:58N 53°35' W 000°04'0 0.0
2017-Oct-19 13:28N 53°35' W 000°04'0 0.0
2017-Oct-19 12:58N 53°35' W 000°04'0 0.0
2017-Oct-19 12:25N 53°35' W 000°04'0 0.0
2017-Oct-19 11:55N 53°35' W 000°04'0 0.0
2017-Oct-19 11:25N 53°35' W 000°04'0 0.0
2017-Oct-19 10:34N 53°35' W 000°04'0 0.0
2017-Oct-19 10:22N 53°35' W 000°04'0 0.0
2017-Oct-19 09:07N 53°35' W 000°04'0 0.0
2017-Oct-18 13:43N 53°35' W 000°04'0 0.0
2017-Oct-18 13:10N 53°35' W 000°04'0 0.0
2017-Oct-18 12:43N 53°35' W 000°04'0 0.0
2017-Oct-18 12:10N 53°35' W 000°04'0 0.0
2017-Oct-18 11:43N 53°35' W 000°04'0 0.0
2017-Oct-18 11:25N 53°35' W 000°04'0 0.0
2017-Oct-18 10:58N 53°35' W 000°04'0 0.0
2017-Oct-18 10:22N 53°35' W 000°04'0 0.0
2017-Oct-18 09:52N 53°35' W 000°04'0 0.0
2017-Oct-18 09:28N 53°35' W 000°04'  
2017-Oct-16 03:35N 56°50' E 007°25'211.3
2017-Oct-16 03:27N 56°51' E 007°27'511.1
2017-Oct-16 03:00N 56°55' E 007°33'611.1
2017-Oct-16 02:29N 56°59' E 007°40'511.0
2017-Oct-16 02:00N 57°03' E 007°46'510.5
2017-Oct-16 01:30N 57°07' E 007°53'510.5
2017-Oct-16 00:59N 57°12' E 007°57'5 9.8
2017-Oct-16 00:30N 57°15' E 008°03'510.1
2017-Oct-16 00:00N 57°18' E 008°11'5 9.9
2017-Oct-15 23:29N 57°20' E 008°20'510.0
2017-Oct-15 23:00N 57°22' E 008°28'510.0
2017-Oct-15 22:29N 57°26' E 008°36'510.0
2017-Oct-15 22:00N 57°28' E 008°43'5 9.8
2017-Oct-15 21:30N 57°30' E 008°51'510.0
2017-Oct-15 21:00N 57°32' E 008°60'5 9.9
2017-Oct-15 20:30N 57°35' E 009°08'5 9.7
2017-Oct-15 19:59N 57°37' E 009°16'510.3
2017-Oct-15 19:30N 57°39' E 009°25'610.8
2017-Oct-15 18:59N 57°42' E 009°34'511.0
2017-Oct-15 18:30N 57°44' E 009°43'611.6
2017-Oct-15 18:00N 57°46' E 009°53'713.2
2017-Oct-15 17:29N 57°48' E 010°05'613.2
2017-Oct-15 17:00N 57°49' E 010°17'713.2
2017-Oct-15 16:30N 57°51' E 010°29'613.0
2017-Oct-15 16:00N 57°51' E 010°41'510.1
2017-Oct-15 15:30N 57°48' E 010°48'714.4
2017-Oct-15 15:00N 57°41' E 010°46'1414.1
2017-Oct-15 14:00N 57°27' E 010°43'6 1.2
2017-Oct-15 09:09N 57°26' E 010°33'0 0.0
2017-Oct-15 08:57N 57°26' E 010°33'0 0.0
2017-Oct-15 06:30N 57°26' E 010°33'0 0.0
2017-Oct-15 06:00N 57°26' E 010°33'0 0.0
2017-Oct-15 04:45N 57°26' E 010°33'0 0.0
2017-Oct-15 04:21N 57°26' E 010°33'  
2017-Oct-12 10:02N 57°24' E 010°46'0 2.2
2017-Oct-12 10:00N 57°24' E 010°46'0 0.5
2017-Oct-12 09:20N 57°24' E 010°47'0 1.2
2017-Oct-12 08:56N 57°24' E 010°48'0 0.4
2017-Oct-12 08:29N 57°24' E 010°48'0 0.5
2017-Oct-12 08:00N 57°24' E 010°48'2 4.4
2017-Oct-12 07:30N 57°24' E 010°43'4 8.8
2017-Oct-12 07:00N 57°25' E 010°36'2 0.2
2017-Oct-11 17:07N 57°26' E 010°33'0 0.0
2017-Oct-11 16:58N 57°26' E 010°33'  

Dump ship's entire track history